sensor_id;sensor_type;location;lat;lon;timestamp;P1;durP1;ratioP1;P2;durP2;ratioP2
7334;SDS011;3708;42.632;23.378;2022-07-26T00:01:47;11.43;;;10.32;;
7334;SDS011;3708;42.632;23.378;2022-07-26T00:04:14;12.48;;;10.23;;
7334;SDS011;3708;42.632;23.378;2022-07-26T00:06:47;13.60;;;10.17;;
7334;SDS011;3708;42.632;23.378;2022-07-26T00:09:13;11.73;;;10.55;;
7334;SDS011;3708;42.632;23.378;2022-07-26T00:11:40;12.55;;;9.65;;
7334;SDS011;3708;42.632;23.378;2022-07-26T00:14:07;12.32;;;11.02;;
7334;SDS011;3708;42.632;23.378;2022-07-26T00:16:35;12.10;;;10.90;;
7334;SDS011;3708;42.632;23.378;2022-07-26T00:19:03;13.90;;;10.02;;
7334;SDS011;3708;42.632;23.378;2022-07-26T00:21:32;15.05;;;10.80;;
7334;SDS011;3708;42.632;23.378;2022-07-26T00:24:01;11.73;;;10.05;;
7334;SDS011;3708;42.632;23.378;2022-07-26T00:26:28;12.77;;;10.32;;
7334;SDS011;3708;42.632;23.378;2022-07-26T00:28:55;11.98;;;10.27;;
7334;SDS011;3708;42.632;23.378;2022-07-26T00:31:22;11.70;;;10.55;;
7334;SDS011;3708;42.632;23.378;2022-07-26T00:33:49;11.23;;;10.15;;
7334;SDS011;3708;42.632;23.378;2022-07-26T00:36:17;12.02;;;10.57;;
7334;SDS011;3708;42.632;23.378;2022-07-26T00:38:44;12.05;;;10.32;;
7334;SDS011;3708;42.632;23.378;2022-07-26T00:41:11;12.63;;;11.32;;
7334;SDS011;3708;42.632;23.378;2022-07-26T00:43:51;13.88;;;11.65;;
7334;SDS011;3708;42.632;23.378;2022-07-26T00:46:19;14.18;;;11.00;;
7334;SDS011;3708;42.632;23.378;2022-07-26T00:48:46;12.18;;;10.35;;
7334;SDS011;3708;42.632;23.378;2022-07-26T00:51:13;12.70;;;10.07;;
7334;SDS011;3708;42.632;23.378;2022-07-26T00:53:41;12.00;;;10.77;;
7334;SDS011;3708;42.632;23.378;2022-07-26T00:56:11;12.32;;;10.75;;
7334;SDS011;3708;42.632;23.378;2022-07-26T00:58:39;14.77;;;11.23;;
7334;SDS011;3708;42.632;23.378;2022-07-26T01:01:07;11.70;;;10.50;;
7334;SDS011;3708;42.632;23.378;2022-07-26T01:03:34;12.73;;;11.43;;
7334;SDS011;3708;42.632;23.378;2022-07-26T01:06:01;17.40;;;10.93;;
7334;SDS011;3708;42.632;23.378;2022-07-26T01:08:28;15.27;;;11.60;;
7334;SDS011;3708;42.632;23.378;2022-07-26T01:11:10;12.27;;;10.95;;
7334;SDS011;3708;42.632;23.378;2022-07-26T01:13:44;12.38;;;10.93;;
7334;SDS011;3708;42.632;23.378;2022-07-26T01:16:11;11.23;;;10.18;;
7334;SDS011;3708;42.632;23.378;2022-07-26T01:18:38;11.48;;;10.27;;
7334;SDS011;3708;42.632;23.378;2022-07-26T01:21:05;11.90;;;9.60;;
7334;SDS011;3708;42.632;23.378;2022-07-26T01:23:36;11.93;;;10.73;;
7334;SDS011;3708;42.632;23.378;2022-07-26T01:26:03;14.93;;;10.43;;
7334;SDS011;3708;42.632;23.378;2022-07-26T01:28:33;12.27;;;10.98;;
7334;SDS011;3708;42.632;23.378;2022-07-26T01:31:02;16.08;;;10.98;;
7334;SDS011;3708;42.632;23.378;2022-07-26T01:33:29;11.85;;;10.75;;
7334;SDS011;3708;42.632;23.378;2022-07-26T01:35:56;12.07;;;10.00;;
7334;SDS011;3708;42.632;23.378;2022-07-26T01:38:24;13.57;;;11.10;;
7334;SDS011;3708;42.632;23.378;2022-07-26T01:40:53;11.00;;;9.90;;
7334;SDS011;3708;42.632;23.378;2022-07-26T01:43:20;11.80;;;10.52;;
7334;SDS011;3708;42.632;23.378;2022-07-26T01:45:48;13.25;;;11.73;;
7334;SDS011;3708;42.632;23.378;2022-07-26T01:48:15;11.60;;;10.45;;
7334;SDS011;3708;42.632;23.378;2022-07-26T01:50:51;12.35;;;11.15;;
7334;SDS011;3708;42.632;23.378;2022-07-26T01:53:18;12.02;;;10.82;;
7334;SDS011;3708;42.632;23.378;2022-07-26T02:09:36;12.03;;;10.53;;
7334;SDS011;3708;42.632;23.378;2022-07-26T02:12:03;12.88;;;11.50;;
7334;SDS011;3708;42.632;23.378;2022-07-26T02:17:26;14.18;;;11.60;;
7334;SDS011;3708;42.632;23.378;2022-07-26T02:19:53;14.77;;;11.40;;
7334;SDS011;3708;42.632;23.378;2022-07-26T02:22:20;13.80;;;11.13;;
7334;SDS011;3708;42.632;23.378;2022-07-26T02:24:48;19.07;;;11.63;;
7334;SDS011;3708;42.632;23.378;2022-07-26T02:27:16;12.77;;;11.47;;
7334;SDS011;3708;42.632;23.378;2022-07-26T02:29:44;17.00;;;12.75;;
7334;SDS011;3708;42.632;23.378;2022-07-26T02:32:11;11.93;;;10.73;;
7334;SDS011;3708;42.632;23.378;2022-07-26T02:34:38;14.47;;;11.07;;
7334;SDS011;3708;42.632;23.378;2022-07-26T02:37:05;13.00;;;11.63;;
7334;SDS011;3708;42.632;23.378;2022-07-26T02:39:32;14.23;;;12.13;;
7334;SDS011;3708;42.632;23.378;2022-07-26T02:42:01;14.10;;;12.70;;
7334;SDS011;3708;42.632;23.378;2022-07-26T02:44:28;13.63;;;12.07;;
7334;SDS011;3708;42.632;23.378;2022-07-26T02:46:55;13.53;;;12.23;;
7334;SDS011;3708;42.632;23.378;2022-07-26T02:49:22;13.47;;;12.07;;
7334;SDS011;3708;42.632;23.378;2022-07-26T02:51:49;13.63;;;12.20;;
7334;SDS011;3708;42.632;23.378;2022-07-26T02:54:17;13.13;;;11.70;;
7334;SDS011;3708;42.632;23.378;2022-07-26T02:56:44;13.63;;;12.03;;
7334;SDS011;3708;42.632;23.378;2022-07-26T02:59:12;13.27;;;11.87;;
7334;SDS011;3708;42.632;23.378;2022-07-26T03:01:39;13.40;;;12.00;;
7334;SDS011;3708;42.632;23.378;2022-07-26T03:04:08;12.70;;;11.43;;
7334;SDS011;3708;42.632;23.378;2022-07-26T03:06:35;12.93;;;10.87;;
7334;SDS011;3708;42.632;23.378;2022-07-26T03:09:03;13.87;;;12.47;;
7334;SDS011;3708;42.632;23.378;2022-07-26T03:11:30;14.33;;;11.30;;
7334;SDS011;3708;42.632;23.378;2022-07-26T03:13:57;14.47;;;11.30;;
7334;SDS011;3708;42.632;23.378;2022-07-26T03:16:26;15.73;;;10.80;;
7334;SDS011;3708;42.632;23.378;2022-07-26T03:18:53;11.70;;;10.47;;
7334;SDS011;3708;42.632;23.378;2022-07-26T03:21:20;11.97;;;10.60;;
7334;SDS011;3708;42.632;23.378;2022-07-26T03:23:46;14.10;;;12.50;;
7334;SDS011;3708;42.632;23.378;2022-07-26T03:26:13;15.53;;;11.00;;
7334;SDS011;3708;42.632;23.378;2022-07-26T03:28:40;11.60;;;10.60;;
7334;SDS011;3708;42.632;23.378;2022-07-26T03:31:08;12.67;;;10.63;;
7334;SDS011;3708;42.632;23.378;2022-07-26T03:33:37;15.80;;;11.47;;
7334;SDS011;3708;42.632;23.378;2022-07-26T03:36:04;13.97;;;11.43;;
7334;SDS011;3708;42.632;23.378;2022-07-26T03:38:31;13.60;;;11.37;;
7334;SDS011;3708;42.632;23.378;2022-07-26T03:40:58;13.53;;;11.93;;
7334;SDS011;3708;42.632;23.378;2022-07-26T03:43:25;12.60;;;11.32;;
7334;SDS011;3708;42.632;23.378;2022-07-26T03:45:52;12.43;;;11.05;;
7334;SDS011;3708;42.632;23.378;2022-07-26T03:48:19;14.50;;;12.30;;
7334;SDS011;3708;42.632;23.378;2022-07-26T03:50:47;13.45;;;11.55;;
7334;SDS011;3708;42.632;23.378;2022-07-26T03:53:14;13.95;;;11.55;;
7334;SDS011;3708;42.632;23.378;2022-07-26T03:55:41;13.83;;;12.00;;
7334;SDS011;3708;42.632;23.378;2022-07-26T03:58:31;15.93;;;12.32;;
7334;SDS011;3708;42.632;23.378;2022-07-26T04:00:58;12.67;;;11.37;;
7334;SDS011;3708;42.632;23.378;2022-07-26T04:03:25;12.40;;;11.07;;
7334;SDS011;3708;42.632;23.378;2022-07-26T04:05:53;14.43;;;11.73;;
7334;SDS011;3708;42.632;23.378;2022-07-26T04:08:20;13.75;;;11.55;;
7334;SDS011;3708;42.632;23.378;2022-07-26T04:10:47;14.18;;;12.32;;
7334;SDS011;3708;42.632;23.378;2022-07-26T04:13:15;13.30;;;11.55;;
7334;SDS011;3708;42.632;23.378;2022-07-26T04:15:42;16.67;;;12.50;;
7334;SDS011;3708;42.632;23.378;2022-07-26T04:18:09;14.02;;;12.63;;
7334;SDS011;3708;42.632;23.378;2022-07-26T04:20:38;12.95;;;11.52;;
7334;SDS011;3708;42.632;23.378;2022-07-26T04:23:08;13.00;;;11.70;;
7334;SDS011;3708;42.632;23.378;2022-07-26T04:25:37;16.80;;;11.90;;
7334;SDS011;3708;42.632;23.378;2022-07-26T04:28:03;13.93;;;12.25;;
7334;SDS011;3708;42.632;23.378;2022-07-26T04:30:31;15.57;;;11.02;;
7334;SDS011;3708;42.632;23.378;2022-07-26T04:32:58;17.20;;;11.80;;
7334;SDS011;3708;42.632;23.378;2022-07-26T04:35:25;12.02;;;10.80;;
7334;SDS011;3708;42.632;23.378;2022-07-26T04:37:52;13.02;;;11.70;;
7334;SDS011;3708;42.632;23.378;2022-07-26T04:40:20;16.38;;;12.00;;
7334;SDS011;3708;42.632;23.378;2022-07-26T04:42:49;13.23;;;11.88;;
7334;SDS011;3708;42.632;23.378;2022-07-26T04:45:17;14.32;;;10.98;;
7334;SDS011;3708;42.632;23.378;2022-07-26T04:47:45;13.23;;;11.23;;
7334;SDS011;3708;42.632;23.378;2022-07-26T04:50:14;12.00;;;10.80;;
7334;SDS011;3708;42.632;23.378;2022-07-26T04:52:42;14.07;;;11.25;;
7334;SDS011;3708;42.632;23.378;2022-07-26T04:55:10;12.27;;;11.05;;
7334;SDS011;3708;42.632;23.378;2022-07-26T04:57:38;12.95;;;9.90;;
7334;SDS011;3708;42.632;23.378;2022-07-26T05:00:06;13.43;;;11.80;;
7334;SDS011;3708;42.632;23.378;2022-07-26T05:02:37;16.30;;;12.00;;
7334;SDS011;3708;42.632;23.378;2022-07-26T05:05:05;13.75;;;11.80;;
7334;SDS011;3708;42.632;23.378;2022-07-26T05:07:38;17.00;;;12.70;;
7334;SDS011;3708;42.632;23.378;2022-07-26T05:10:06;13.98;;;12.13;;
7334;SDS011;3708;42.632;23.378;2022-07-26T05:12:34;13.27;;;11.85;;
7334;SDS011;3708;42.632;23.378;2022-07-26T05:15:03;17.58;;;12.60;;
7334;SDS011;3708;42.632;23.378;2022-07-26T05:17:31;10.98;;;9.93;;
7334;SDS011;3708;42.632;23.378;2022-07-26T05:19:58;12.43;;;10.77;;
7334;SDS011;3708;42.632;23.378;2022-07-26T05:22:25;13.70;;;11.65;;
7334;SDS011;3708;42.632;23.378;2022-07-26T05:24:52;11.75;;;10.55;;
7334;SDS011;3708;42.632;23.378;2022-07-26T05:27:19;16.83;;;12.50;;
7334;SDS011;3708;42.632;23.378;2022-07-26T05:29:46;14.98;;;11.43;;
7334;SDS011;3708;42.632;23.378;2022-07-26T05:32:15;13.60;;;11.98;;
7334;SDS011;3708;42.632;23.378;2022-07-26T05:34:42;14.30;;;11.85;;
7334;SDS011;3708;42.632;23.378;2022-07-26T05:37:10;11.27;;;10.07;;
7334;SDS011;3708;42.632;23.378;2022-07-26T05:39:37;11.00;;;9.98;;
7334;SDS011;3708;42.632;23.378;2022-07-26T05:42:04;16.55;;;12.05;;
7334;SDS011;3708;42.632;23.378;2022-07-26T05:44:32;12.10;;;10.80;;
7334;SDS011;3708;42.632;23.378;2022-07-26T05:46:59;15.48;;;11.65;;
7334;SDS011;3708;42.632;23.378;2022-07-26T05:49:28;17.45;;;12.45;;
7334;SDS011;3708;42.632;23.378;2022-07-26T05:51:57;12.45;;;11.15;;
7334;SDS011;3708;42.632;23.378;2022-07-26T05:54:28;11.85;;;10.15;;
7334;SDS011;3708;42.632;23.378;2022-07-26T05:56:57;15.98;;;10.50;;
7334;SDS011;3708;42.632;23.378;2022-07-26T05:59:33;13.80;;;11.18;;
7334;SDS011;3708;42.632;23.378;2022-07-26T06:02:00;14.77;;;11.27;;
7334;SDS011;3708;42.632;23.378;2022-07-26T06:04:31;12.02;;;10.25;;
7334;SDS011;3708;42.632;23.378;2022-07-26T06:06:58;12.18;;;10.85;;
7334;SDS011;3708;42.632;23.378;2022-07-26T06:09:25;12.95;;;11.68;;
7334;SDS011;3708;42.632;23.378;2022-07-26T06:11:52;12.05;;;9.82;;
7334;SDS011;3708;42.632;23.378;2022-07-26T06:14:20;11.65;;;10.52;;
7334;SDS011;3708;42.632;23.378;2022-07-26T06:16:47;19.42;;;10.35;;
7334;SDS011;3708;42.632;23.378;2022-07-26T06:19:15;16.75;;;11.50;;
7334;SDS011;3708;42.632;23.378;2022-07-26T06:21:44;19.33;;;11.77;;
7334;SDS011;3708;42.632;23.378;2022-07-26T06:24:11;15.65;;;11.38;;
7334;SDS011;3708;42.632;23.378;2022-07-26T06:26:40;13.82;;;11.07;;
7334;SDS011;3708;42.632;23.378;2022-07-26T06:29:07;17.17;;;12.30;;
7334;SDS011;3708;42.632;23.378;2022-07-26T06:31:34;18.75;;;11.52;;
7334;SDS011;3708;42.632;23.378;2022-07-26T06:34:01;21.05;;;12.45;;
7334;SDS011;3708;42.632;23.378;2022-07-26T06:36:29;18.58;;;11.18;;
7334;SDS011;3708;42.632;23.378;2022-07-26T06:38:58;22.00;;;12.65;;
7334;SDS011;3708;42.632;23.378;2022-07-26T06:41:24;18.02;;;11.43;;
7334;SDS011;3708;42.632;23.378;2022-07-26T06:43:55;15.98;;;11.68;;
7334;SDS011;3708;42.632;23.378;2022-07-26T06:46:23;21.13;;;12.32;;
7334;SDS011;3708;42.632;23.378;2022-07-26T06:48:50;18.80;;;13.80;;
7334;SDS011;3708;42.632;23.378;2022-07-26T06:51:17;27.45;;;15.70;;
7334;SDS011;3708;42.632;23.378;2022-07-26T06:53:45;20.90;;;14.32;;
7334;SDS011;3708;42.632;23.378;2022-07-26T06:56:15;24.63;;;14.40;;
7334;SDS011;3708;42.632;23.378;2022-07-26T06:58:42;26.45;;;14.32;;
7334;SDS011;3708;42.632;23.378;2022-07-26T07:01:09;20.17;;;14.98;;
7334;SDS011;3708;42.632;23.378;2022-07-26T07:03:36;19.02;;;15.25;;
7334;SDS011;3708;42.632;23.378;2022-07-26T07:06:03;21.10;;;15.63;;
7334;SDS011;3708;42.632;23.378;2022-07-26T07:08:30;25.75;;;15.80;;
7334;SDS011;3708;42.632;23.378;2022-07-26T07:10:58;23.98;;;15.63;;
7334;SDS011;3708;42.632;23.378;2022-07-26T07:13:27;21.88;;;15.25;;
7334;SDS011;3708;42.632;23.378;2022-07-26T07:15:54;17.05;;;13.48;;
7334;SDS011;3708;42.632;23.378;2022-07-26T07:18:21;19.00;;;14.45;;
7334;SDS011;3708;42.632;23.378;2022-07-26T07:20:48;23.67;;;14.23;;
7334;SDS011;3708;42.632;23.378;2022-07-26T07:23:15;18.17;;;13.95;;
7334;SDS011;3708;42.632;23.378;2022-07-26T07:25:46;16.02;;;13.30;;
7334;SDS011;3708;42.632;23.378;2022-07-26T07:28:13;18.38;;;12.38;;
7334;SDS011;3708;42.632;23.378;2022-07-26T07:30:41;19.73;;;12.23;;
7334;SDS011;3708;42.632;23.378;2022-07-26T07:33:08;22.92;;;10.77;;
7334;SDS011;3708;42.632;23.378;2022-07-26T07:35:38;20.02;;;11.98;;
7334;SDS011;3708;42.632;23.378;2022-07-26T07:38:05;14.20;;;11.68;;
7334;SDS011;3708;42.632;23.378;2022-07-26T07:40:33;15.23;;;11.75;;
7334;SDS011;3708;42.632;23.378;2022-07-26T07:43:00;13.23;;;11.90;;
7334;SDS011;3708;42.632;23.378;2022-07-26T07:45:27;22.30;;;11.85;;
7334;SDS011;3708;42.632;23.378;2022-07-26T07:47:55;15.48;;;11.45;;
7334;SDS011;3708;42.632;23.378;2022-07-26T07:50:22;15.60;;;10.60;;
7334;SDS011;3708;42.632;23.378;2022-07-26T07:52:49;15.05;;;10.95;;
7334;SDS011;3708;42.632;23.378;2022-07-26T07:55:17;13.73;;;11.02;;
7334;SDS011;3708;42.632;23.378;2022-07-26T07:57:44;16.55;;;11.05;;
7334;SDS011;3708;42.632;23.378;2022-07-26T08:00:11;13.25;;;10.75;;
7334;SDS011;3708;42.632;23.378;2022-07-26T08:02:40;12.70;;;10.95;;
7334;SDS011;3708;42.632;23.378;2022-07-26T08:05:09;10.50;;;9.50;;
7334;SDS011;3708;42.632;23.378;2022-07-26T08:07:36;14.70;;;10.13;;
7334;SDS011;3708;42.632;23.378;2022-07-26T08:10:03;11.32;;;10.07;;
7334;SDS011;3708;42.632;23.378;2022-07-26T08:12:31;17.40;;;11.15;;
7334;SDS011;3708;42.632;23.378;2022-07-26T08:14:58;18.58;;;10.48;;
7334;SDS011;3708;42.632;23.378;2022-07-26T08:17:26;11.38;;;9.75;;
7334;SDS011;3708;42.632;23.378;2022-07-26T08:19:53;12.40;;;11.20;;
7334;SDS011;3708;42.632;23.378;2022-07-26T08:22:21;17.05;;;10.18;;
7334;SDS011;3708;42.632;23.378;2022-07-26T08:24:48;15.50;;;10.48;;
7334;SDS011;3708;42.632;23.378;2022-07-26T08:27:16;14.63;;;9.98;;
7334;SDS011;3708;42.632;23.378;2022-07-26T08:29:43;12.82;;;9.73;;
7334;SDS011;3708;42.632;23.378;2022-07-26T08:32:10;12.95;;;9.90;;
7334;SDS011;3708;42.632;23.378;2022-07-26T08:34:37;15.18;;;10.63;;
7334;SDS011;3708;42.632;23.378;2022-07-26T08:37:04;13.57;;;10.48;;
7334;SDS011;3708;42.632;23.378;2022-07-26T08:39:33;12.98;;;10.70;;
7334;SDS011;3708;42.632;23.378;2022-07-26T08:42:01;12.07;;;9.55;;
7334;SDS011;3708;42.632;23.378;2022-07-26T08:44:28;14.10;;;10.68;;
7334;SDS011;3708;42.632;23.378;2022-07-26T08:46:55;15.90;;;11.77;;
7334;SDS011;3708;42.632;23.378;2022-07-26T08:49:22;11.60;;;8.93;;
7334;SDS011;3708;42.632;23.378;2022-07-26T08:51:49;13.82;;;10.60;;
7334;SDS011;3708;42.632;23.378;2022-07-26T08:54:19;11.68;;;9.63;;
7334;SDS011;3708;42.632;23.378;2022-07-26T08:56:51;11.75;;;10.20;;
7334;SDS011;3708;42.632;23.378;2022-07-26T08:59:22;12.30;;;11.02;;
7334;SDS011;3708;42.632;23.378;2022-07-26T09:01:51;11.55;;;9.85;;
7334;SDS011;3708;42.632;23.378;2022-07-26T09:04:20;11.68;;;10.30;;
7334;SDS011;3708;42.632;23.378;2022-07-26T09:07:02;13.50;;;10.82;;
7334;SDS011;3708;42.632;23.378;2022-07-26T09:09:31;12.95;;;10.95;;
7334;SDS011;3708;42.632;23.378;2022-07-26T09:12:00;13.95;;;10.43;;
7334;SDS011;3708;42.632;23.378;2022-07-26T09:14:39;16.67;;;10.70;;
7334;SDS011;3708;42.632;23.378;2022-07-26T09:17:06;12.90;;;10.93;;
7334;SDS011;3708;42.632;23.378;2022-07-26T09:19:33;14.85;;;11.15;;
7334;SDS011;3708;42.632;23.378;2022-07-26T09:22:05;14.75;;;11.13;;
7334;SDS011;3708;42.632;23.378;2022-07-26T09:24:34;11.35;;;10.25;;
7334;SDS011;3708;42.632;23.378;2022-07-26T09:27:04;12.77;;;10.68;;
7334;SDS011;3708;42.632;23.378;2022-07-26T09:29:40;11.20;;;9.80;;
7334;SDS011;3708;42.632;23.378;2022-07-26T09:32:09;13.02;;;10.10;;
7334;SDS011;3708;42.632;23.378;2022-07-26T09:34:41;10.80;;;9.70;;
7334;SDS011;3708;42.632;23.378;2022-07-26T09:37:08;10.75;;;9.75;;
7334;SDS011;3708;42.632;23.378;2022-07-26T09:39:42;12.35;;;9.70;;
7334;SDS011;3708;42.632;23.378;2022-07-26T09:42:20;12.60;;;11.30;;
7334;SDS011;3708;42.632;23.378;2022-07-26T09:44:48;13.45;;;9.93;;
7334;SDS011;3708;42.632;23.378;2022-07-26T09:47:15;14.20;;;10.27;;
7334;SDS011;3708;42.632;23.378;2022-07-26T09:49:43;11.55;;;10.35;;
7334;SDS011;3708;42.632;23.378;2022-07-26T09:52:13;13.18;;;10.48;;
7334;SDS011;3708;42.632;23.378;2022-07-26T09:54:41;13.00;;;9.77;;
7334;SDS011;3708;42.632;23.378;2022-07-26T09:57:11;10.95;;;9.75;;
7334;SDS011;3708;42.632;23.378;2022-07-26T09:59:42;10.65;;;9.65;;
7334;SDS011;3708;42.632;23.378;2022-07-26T10:02:09;10.98;;;9.90;;
7334;SDS011;3708;42.632;23.378;2022-07-26T10:04:38;13.98;;;10.30;;
7334;SDS011;3708;42.632;23.378;2022-07-26T10:07:06;14.00;;;10.75;;
7334;SDS011;3708;42.632;23.378;2022-07-26T10:09:35;13.57;;;10.15;;
7334;SDS011;3708;42.632;23.378;2022-07-26T10:12:08;12.65;;;10.55;;
7334;SDS011;3708;42.632;23.378;2022-07-26T10:14:42;11.00;;;9.85;;
7334;SDS011;3708;42.632;23.378;2022-07-26T10:26:03;12.38;;;9.60;;
7334;SDS011;3708;42.632;23.378;2022-07-26T10:28:32;12.98;;;10.68;;
7334;SDS011;3708;42.632;23.378;2022-07-26T10:33:56;14.90;;;11.07;;
7334;SDS011;3708;42.632;23.378;2022-07-26T10:36:30;11.20;;;9.70;;
7334;SDS011;3708;42.632;23.378;2022-07-26T10:39:00;13.75;;;10.88;;
7334;SDS011;3708;42.632;23.378;2022-07-26T10:41:35;11.50;;;10.43;;
7334;SDS011;3708;42.632;23.378;2022-07-26T10:44:14;15.95;;;10.38;;
7334;SDS011;3708;42.632;23.378;2022-07-26T10:49:52;10.85;;;9.73;;
7334;SDS011;3708;42.632;23.378;2022-07-26T10:52:21;11.23;;;10.13;;
7334;SDS011;3708;42.632;23.378;2022-07-26T10:57:40;12.93;;;10.02;;
7334;SDS011;3708;42.632;23.378;2022-07-26T11:00:09;13.30;;;10.98;;
7334;SDS011;3708;42.632;23.378;2022-07-26T11:02:44;10.98;;;9.88;;
7334;SDS011;3708;42.632;23.378;2022-07-26T11:05:14;13.43;;;9.95;;
7334;SDS011;3708;42.632;23.378;2022-07-26T11:07:47;11.82;;;9.98;;
7334;SDS011;3708;42.632;23.378;2022-07-26T11:10:15;13.40;;;9.65;;
7334;SDS011;3708;42.632;23.378;2022-07-26T11:12:47;11.68;;;10.48;;
7334;SDS011;3708;42.632;23.378;2022-07-26T11:15:14;10.93;;;9.82;;
7334;SDS011;3708;42.632;23.378;2022-07-26T11:17:44;10.13;;;9.05;;
7334;SDS011;3708;42.632;23.378;2022-07-26T11:20:11;14.02;;;9.13;;
7334;SDS011;3708;42.632;23.378;2022-07-26T11:22:51;11.40;;;9.68;;
7334;SDS011;3708;42.632;23.378;2022-07-26T11:25:19;12.10;;;9.02;;
7334;SDS011;3708;42.632;23.378;2022-07-26T11:27:57;12.32;;;9.63;;
7334;SDS011;3708;42.632;23.378;2022-07-26T11:30:25;9.95;;;9.00;;
7334;SDS011;3708;42.632;23.378;2022-07-26T11:32:53;10.63;;;9.63;;
7334;SDS011;3708;42.632;23.378;2022-07-26T11:35:23;10.88;;;9.68;;
7334;SDS011;3708;42.632;23.378;2022-07-26T11:37:52;8.82;;;7.93;;
7334;SDS011;3708;42.632;23.378;2022-07-26T11:43:10;9.93;;;8.32;;
7334;SDS011;3708;42.632;23.378;2022-07-26T11:45:37;10.15;;;8.82;;
7334;SDS011;3708;42.632;23.378;2022-07-26T11:48:06;15.25;;;8.20;;
7334;SDS011;3708;42.632;23.378;2022-07-26T11:50:33;11.13;;;9.30;;
7334;SDS011;3708;42.632;23.378;2022-07-26T11:53:01;11.05;;;8.80;;
7334;SDS011;3708;42.632;23.378;2022-07-26T11:55:28;11.68;;;9.43;;
7334;SDS011;3708;42.632;23.378;2022-07-26T11:58:04;10.13;;;8.40;;
7334;SDS011;3708;42.632;23.378;2022-07-26T12:00:31;9.68;;;8.15;;
7334;SDS011;3708;42.632;23.378;2022-07-26T12:02:59;11.40;;;8.40;;
7334;SDS011;3708;42.632;23.378;2022-07-26T12:05:27;9.30;;;8.40;;
7334;SDS011;3708;42.632;23.378;2022-07-26T12:07:55;10.35;;;9.23;;
7334;SDS011;3708;42.632;23.378;2022-07-26T12:10:23;9.30;;;8.50;;
7334;SDS011;3708;42.632;23.378;2022-07-26T12:13:04;8.77;;;7.95;;
7334;SDS011;3708;42.632;23.378;2022-07-26T12:15:42;10.68;;;8.40;;
7334;SDS011;3708;42.632;23.378;2022-07-26T12:18:10;10.52;;;9.43;;
7334;SDS011;3708;42.632;23.378;2022-07-26T12:20:54;9.30;;;8.40;;
7334;SDS011;3708;42.632;23.378;2022-07-26T12:23:22;8.68;;;7.82;;
7334;SDS011;3708;42.632;23.378;2022-07-26T12:25:49;10.80;;;8.00;;
7334;SDS011;3708;42.632;23.378;2022-07-26T12:28:18;14.20;;;8.98;;
7334;SDS011;3708;42.632;23.378;2022-07-26T12:31:24;12.95;;;8.55;;
7334;SDS011;3708;42.632;23.378;2022-07-26T12:33:53;10.27;;;8.30;;
7334;SDS011;3708;42.632;23.378;2022-07-26T12:36:22;9.23;;;8.32;;
7334;SDS011;3708;42.632;23.378;2022-07-26T12:38:49;12.20;;;7.65;;
7334;SDS011;3708;42.632;23.378;2022-07-26T12:41:29;9.48;;;7.10;;
7334;SDS011;3708;42.632;23.378;2022-07-26T12:43:57;6.75;;;6.07;;
7334;SDS011;3708;42.632;23.378;2022-07-26T12:46:24;6.43;;;5.82;;
7334;SDS011;3708;42.632;23.378;2022-07-26T12:48:51;6.82;;;6.22;;
7334;SDS011;3708;42.632;23.378;2022-07-26T12:51:18;7.10;;;6.35;;
7334;SDS011;3708;42.632;23.378;2022-07-26T12:53:47;8.35;;;6.22;;
7334;SDS011;3708;42.632;23.378;2022-07-26T12:56:14;10.88;;;6.22;;
7334;SDS011;3708;42.632;23.378;2022-07-26T12:58:41;7.30;;;6.60;;
7334;SDS011;3708;42.632;23.378;2022-07-26T13:01:08;7.82;;;5.88;;
7334;SDS011;3708;42.632;23.378;2022-07-26T13:03:36;6.68;;;6.07;;
7334;SDS011;3708;42.632;23.378;2022-07-26T13:06:03;7.15;;;6.43;;
7334;SDS011;3708;42.632;23.378;2022-07-26T13:08:31;10.15;;;6.25;;
7334;SDS011;3708;42.632;23.378;2022-07-26T13:11:00;7.75;;;6.47;;
7334;SDS011;3708;42.632;23.378;2022-07-26T13:13:27;10.63;;;6.45;;
7334;SDS011;3708;42.632;23.378;2022-07-26T13:15:56;6.63;;;5.93;;
7334;SDS011;3708;42.632;23.378;2022-07-26T13:18:22;6.65;;;5.70;;
7334;SDS011;3708;42.632;23.378;2022-07-26T13:20:49;6.38;;;5.22;;
7334;SDS011;3708;42.632;23.378;2022-07-26T13:23:16;6.45;;;5.00;;
7334;SDS011;3708;42.632;23.378;2022-07-26T13:25:44;6.25;;;5.13;;
7334;SDS011;3708;42.632;23.378;2022-07-26T13:28:12;7.93;;;5.20;;
7334;SDS011;3708;42.632;23.378;2022-07-26T13:30:40;8.43;;;5.20;;
7334;SDS011;3708;42.632;23.378;2022-07-26T13:33:07;6.30;;;5.63;;
7334;SDS011;3708;42.632;23.378;2022-07-26T13:35:35;5.35;;;4.95;;
7334;SDS011;3708;42.632;23.378;2022-07-26T13:38:03;5.82;;;5.15;;
7334;SDS011;3708;42.632;23.378;2022-07-26T13:40:30;7.35;;;6.35;;
7334;SDS011;3708;42.632;23.378;2022-07-26T13:42:57;6.60;;;5.55;;
7334;SDS011;3708;42.632;23.378;2022-07-26T13:45:26;11.38;;;6.25;;
7334;SDS011;3708;42.632;23.378;2022-07-26T13:47:57;6.72;;;6.13;;
7334;SDS011;3708;42.632;23.378;2022-07-26T13:50:26;9.80;;;6.32;;
7334;SDS011;3708;42.632;23.378;2022-07-26T13:52:57;7.55;;;6.85;;
7334;SDS011;3708;42.632;23.378;2022-07-26T13:55:28;13.45;;;7.82;;
7334;SDS011;3708;42.632;23.378;2022-07-26T13:57:57;10.20;;;8.10;;
7334;SDS011;3708;42.632;23.378;2022-07-26T14:00:32;10.35;;;7.70;;
7334;SDS011;3708;42.632;23.378;2022-07-26T14:05:36;8.05;;;7.30;;
7334;SDS011;3708;42.632;23.378;2022-07-26T14:08:03;8.88;;;6.55;;
7334;SDS011;3708;42.632;23.378;2022-07-26T14:10:31;10.00;;;7.05;;
7334;SDS011;3708;42.632;23.378;2022-07-26T14:13:02;10.45;;;7.15;;
7334;SDS011;3708;42.632;23.378;2022-07-26T14:15:31;7.55;;;6.72;;
7334;SDS011;3708;42.632;23.378;2022-07-26T14:17:58;10.85;;;7.38;;
7334;SDS011;3708;42.632;23.378;2022-07-26T14:20:26;19.70;;;8.20;;
7334;SDS011;3708;42.632;23.378;2022-07-26T14:22:53;11.13;;;7.53;;
7334;SDS011;3708;42.632;23.378;2022-07-26T14:25:22;10.02;;;7.38;;
7334;SDS011;3708;42.632;23.378;2022-07-26T14:27:50;11.75;;;8.25;;
7334;SDS011;3708;42.632;23.378;2022-07-26T14:30:18;10.70;;;7.60;;
7334;SDS011;3708;42.632;23.378;2022-07-26T14:32:48;12.77;;;7.07;;
7334;SDS011;3708;42.632;23.378;2022-07-26T14:35:15;9.52;;;6.95;;
7334;SDS011;3708;42.632;23.378;2022-07-26T14:37:42;8.95;;;6.85;;
7334;SDS011;3708;42.632;23.378;2022-07-26T14:40:10;12.00;;;7.55;;
7334;SDS011;3708;42.632;23.378;2022-07-26T14:42:38;11.25;;;6.78;;
7334;SDS011;3708;42.632;23.378;2022-07-26T14:45:06;10.50;;;7.50;;
7334;SDS011;3708;42.632;23.378;2022-07-26T14:47:34;10.23;;;6.88;;
7334;SDS011;3708;42.632;23.378;2022-07-26T14:50:04;10.98;;;7.30;;
7334;SDS011;3708;42.632;23.378;2022-07-26T14:52:32;10.15;;;7.68;;
7334;SDS011;3708;42.632;23.378;2022-07-26T14:55:00;9.13;;;7.18;;
7334;SDS011;3708;42.632;23.378;2022-07-26T14:57:27;21.02;;;7.22;;
7334;SDS011;3708;42.632;23.378;2022-07-26T14:59:54;13.32;;;6.95;;
7334;SDS011;3708;42.632;23.378;2022-07-26T15:02:21;9.23;;;7.40;;
7334;SDS011;3708;42.632;23.378;2022-07-26T15:04:49;8.55;;;7.07;;
7334;SDS011;3708;42.632;23.378;2022-07-26T15:07:21;8.43;;;7.43;;
7334;SDS011;3708;42.632;23.378;2022-07-26T15:09:48;11.73;;;6.82;;
7334;SDS011;3708;42.632;23.378;2022-07-26T15:12:17;9.63;;;8.60;;
7334;SDS011;3708;42.632;23.378;2022-07-26T15:14:44;11.38;;;7.32;;
7334;SDS011;3708;42.632;23.378;2022-07-26T15:17:11;8.63;;;6.90;;
7334;SDS011;3708;42.632;23.378;2022-07-26T15:19:43;8.77;;;7.55;;
7334;SDS011;3708;42.632;23.378;2022-07-26T15:22:10;8.73;;;7.80;;
7334;SDS011;3708;42.632;23.378;2022-07-26T15:24:38;10.68;;;6.88;;
7334;SDS011;3708;42.632;23.378;2022-07-26T15:27:05;9.90;;;7.15;;
7334;SDS011;3708;42.632;23.378;2022-07-26T15:29:32;8.55;;;7.70;;